sensor_id;sensor_type;location;lat;lon;timestamp;pressure;altitude;pressure_sealevel;temperature;humidity
19286;BME280;9776;50.798;6.430;2023-05-09T00:00:29;100413.44;;;18.36;69.11
19286;BME280;9776;50.798;6.430;2023-05-09T00:02:56;100421.09;;;18.46;68.70
19286;BME280;9776;50.798;6.430;2023-05-09T00:05:22;100421.34;;;18.51;68.68
19286;BME280;9776;50.798;6.430;2023-05-09T00:07:49;100421.28;;;18.44;68.71
19286;BME280;9776;50.798;6.430;2023-05-09T00:10:16;100417.56;;;18.39;68.97
19286;BME280;9776;50.798;6.430;2023-05-09T00:12:44;100411.81;;;18.35;69.20
19286;BME280;9776;50.798;6.430;2023-05-09T00:15:11;100408.47;;;18.33;69.12
19286;BME280;9776;50.798;6.430;2023-05-09T00:17:38;100408.31;;;18.35;69.13
19286;BME280;9776;50.798;6.430;2023-05-09T00:20:07;100416.31;;;18.35;69.36
19286;BME280;9776;50.798;6.430;2023-05-09T00:22:37;100410.59;;;18.38;69.06
19286;BME280;9776;50.798;6.430;2023-05-09T00:25:05;100402.16;;;18.41;69.25
19286;BME280;9776;50.798;6.430;2023-05-09T00:27:32;100396.03;;;18.47;68.97
19286;BME280;9776;50.798;6.430;2023-05-09T00:30:00;100389.72;;;18.54;68.63
19286;BME280;9776;50.798;6.430;2023-05-09T00:32:27;100384.41;;;18.61;68.64
19286;BME280;9776;50.798;6.430;2023-05-09T00:34:54;100381.50;;;18.62;68.26
19286;BME280;9776;50.798;6.430;2023-05-09T00:37:20;100385.63;;;18.65;68.57
19286;BME280;9776;50.798;6.430;2023-05-09T00:39:47;100391.78;;;18.59;68.34
19286;BME280;9776;50.798;6.430;2023-05-09T00:42:14;100390.28;;;18.50;68.58
19286;BME280;9776;50.798;6.430;2023-05-09T00:44:40;100385.53;;;18.45;68.72
19286;BME280;9776;50.798;6.430;2023-05-09T00:47:08;100379.34;;;18.38;68.89
19286;BME280;9776;50.798;6.430;2023-05-09T00:49:35;100381.81;;;18.40;68.83
19286;BME280;9776;50.798;6.430;2023-05-09T00:52:02;100380.78;;;18.41;69.12
19286;BME280;9776;50.798;6.430;2023-05-09T00:54:30;100371.50;;;18.37;69.11
19286;BME280;9776;50.798;6.430;2023-05-09T00:56:57;100371.91;;;18.34;69.37
19286;BME280;9776;50.798;6.430;2023-05-09T00:59:23;100370.63;;;18.30;69.47
19286;BME280;9776;50.798;6.430;2023-05-09T01:01:50;100361.59;;;18.31;69.38
19286;BME280;9776;50.798;6.430;2023-05-09T01:04:18;100361.44;;;18.32;69.31
19286;BME280;9776;50.798;6.430;2023-05-09T01:06:52;100358.50;;;18.27;69.22
19286;BME280;9776;50.798;6.430;2023-05-09T01:09:24;100358.28;;;18.22;69.45
19286;BME280;9776;50.798;6.430;2023-05-09T01:12:03;100350.88;;;18.18;69.53
19286;BME280;9776;50.798;6.430;2023-05-09T01:14:37;100344.25;;;18.13;69.74
19286;BME280;9776;50.798;6.430;2023-05-09T01:17:10;100352.88;;;18.09;69.98
19286;BME280;9776;50.798;6.430;2023-05-09T01:19:51;100351.63;;;18.05;70.19
19286;BME280;9776;50.798;6.430;2023-05-09T01:22:22;100341.94;;;18.04;70.48
19286;BME280;9776;50.798;6.430;2023-05-09T01:25:18;100338.22;;;17.98;70.21
19286;BME280;9776;50.798;6.430;2023-05-09T01:27:50;100339.44;;;17.96;70.61
19286;BME280;9776;50.798;6.430;2023-05-09T01:30:20;100338.19;;;17.92;70.75
19286;BME280;9776;50.798;6.430;2023-05-09T01:32:50;100331.19;;;17.91;70.80
19286;BME280;9776;50.798;6.430;2023-05-09T01:35:18;100326.53;;;17.99;70.63
19286;BME280;9776;50.798;6.430;2023-05-09T01:37:48;100318.94;;;18.09;70.34
19286;BME280;9776;50.798;6.430;2023-05-09T01:40:18;100318.81;;;18.18;70.22
19286;BME280;9776;50.798;6.430;2023-05-09T01:42:49;100315.97;;;18.26;69.92
19286;BME280;9776;50.798;6.430;2023-05-09T01:45:19;100313.72;;;18.29;69.88
19286;BME280;9776;50.798;6.430;2023-05-09T01:47:47;100313.72;;;18.29;69.72
19286;BME280;9776;50.798;6.430;2023-05-09T01:50:17;100314.78;;;18.35;69.68
19286;BME280;9776;50.798;6.430;2023-05-09T01:52:46;100311.06;;;18.36;69.79
19286;BME280;9776;50.798;6.430;2023-05-09T01:55:14;100302.81;;;18.31;69.80
19286;BME280;9776;50.798;6.430;2023-05-09T01:57:42;100304.25;;;18.33;69.71
19286;BME280;9776;50.798;6.430;2023-05-09T02:00:11;100313.13;;;18.34;69.74
19286;BME280;9776;50.798;6.430;2023-05-09T02:02:40;100312.06;;;18.28;69.60
19286;BME280;9776;50.798;6.430;2023-05-09T02:05:08;100308.53;;;18.21;69.99
19286;BME280;9776;50.798;6.430;2023-05-09T02:07:36;100307.34;;;18.24;70.01
19286;BME280;9776;50.798;6.430;2023-05-09T02:10:05;100303.44;;;18.26;69.96
19286;BME280;9776;50.798;6.430;2023-05-09T02:12:32;100301.16;;;18.30;69.75
19286;BME280;9776;50.798;6.430;2023-05-09T02:14:59;100302.00;;;18.30;69.97
19286;BME280;9776;50.798;6.430;2023-05-09T02:17:26;100294.81;;;18.31;69.96
19286;BME280;9776;50.798;6.430;2023-05-09T02:19:56;100293.97;;;18.30;69.68
19286;BME280;9776;50.798;6.430;2023-05-09T02:22:22;100300.75;;;18.26;69.93
19286;BME280;9776;50.798;6.430;2023-05-09T02:24:49;100295.00;;;18.23;70.04
19286;BME280;9776;50.798;6.430;2023-05-09T02:27:16;100293.72;;;18.19;70.06
19286;BME280;9776;50.798;6.430;2023-05-09T02:29:46;100287.97;;;18.15;69.93
19286;BME280;9776;50.798;6.430;2023-05-09T02:32:16;100285.88;;;18.10;69.88
19286;BME280;9776;50.798;6.430;2023-05-09T02:34:44;100289.16;;;18.06;70.03
19286;BME280;9776;50.798;6.430;2023-05-09T02:37:14;100278.88;;;18.03;70.09
19286;BME280;9776;50.798;6.430;2023-05-09T02:39:41;100280.09;;;18.00;70.55
19286;BME280;9776;50.798;6.430;2023-05-09T02:42:09;100275.78;;;17.99;70.28
19286;BME280;9776;50.798;6.430;2023-05-09T02:44:36;100277.63;;;17.99;70.37
19286;BME280;9776;50.798;6.430;2023-05-09T02:47:04;100280.09;;;18.00;70.58
19286;BME280;9776;50.798;6.430;2023-05-09T02:49:31;100293.19;;;17.95;71.03
19286;BME280;9776;50.798;6.430;2023-05-09T02:51:58;100288.91;;;17.94;71.38
19286;BME280;9776;50.798;6.430;2023-05-09T02:54:27;100290.13;;;17.92;71.45
19286;BME280;9776;50.798;6.430;2023-05-09T02:56:54;100284.56;;;17.93;71.37
19286;BME280;9776;50.798;6.430;2023-05-09T02:59:20;100288.66;;;17.89;71.52
19286;BME280;9776;50.798;6.430;2023-05-09T03:01:47;100291.97;;;17.91;71.45
19286;BME280;9776;50.798;6.430;2023-05-09T03:04:13;100284.13;;;17.90;71.47
19286;BME280;9776;50.798;6.430;2023-05-09T03:06:40;100280.47;;;17.91;71.71
19286;BME280;9776;50.798;6.430;2023-05-09T03:09:07;100275.78;;;17.99;71.34
19286;BME280;9776;50.798;6.430;2023-05-09T03:11:35;100274.38;;;18.03;71.11
19286;BME280;9776;50.798;6.430;2023-05-09T03:14:02;100273.09;;;17.99;71.36
19286;BME280;9776;50.798;6.430;2023-05-09T03:16:29;100275.16;;;17.97;71.46
19286;BME280;9776;50.798;6.430;2023-05-09T03:18:56;100276.38;;;17.95;71.65
19286;BME280;9776;50.798;6.430;2023-05-09T03:21:22;100270.16;;;17.88;71.66
19286;BME280;9776;50.798;6.430;2023-05-09T03:23:49;100265.22;;;17.85;71.86
19286;BME280;9776;50.798;6.430;2023-05-09T03:26:15;100262.13;;;17.81;71.91
19286;BME280;9776;50.798;6.430;2023-05-09T03:28:44;100255.16;;;17.80;72.02
19286;BME280;9776;50.798;6.430;2023-05-09T03:31:11;100261.03;;;17.69;72.59
19286;BME280;9776;50.798;6.430;2023-05-09T03:33:37;100262.84;;;17.62;72.65
19286;BME280;9776;50.798;6.430;2023-05-09T03:36:04;100268.69;;;17.51;72.82
19286;BME280;9776;50.798;6.430;2023-05-09T03:38:31;100260.03;;;17.42;73.24
19286;BME280;9776;50.798;6.430;2023-05-09T03:40:58;100253.41;;;17.38;73.20
19286;BME280;9776;50.798;6.430;2023-05-09T03:43:24;100253.75;;;17.29;73.73
19286;BME280;9776;50.798;6.430;2023-05-09T03:45:52;100252.28;;;17.20;74.13
19286;BME280;9776;50.798;6.430;2023-05-09T03:48:19;100249.34;;;17.15;74.51
19286;BME280;9776;50.798;6.430;2023-05-09T03:50:46;100246.44;;;17.10;74.59
19286;BME280;9776;50.798;6.430;2023-05-09T03:53:12;100242.09;;;17.09;74.82
19286;BME280;9776;50.798;6.430;2023-05-09T03:55:40;100236.78;;;17.09;74.62
19286;BME280;9776;50.798;6.430;2023-05-09T03:58:07;100233.09;;;17.10;74.66
19286;BME280;9776;50.798;6.430;2023-05-09T04:00:33;100217.59;;;17.20;74.52
19286;BME280;9776;50.798;6.430;2023-05-09T04:03:01;100221.34;;;17.32;74.29
19286;BME280;9776;50.798;6.430;2023-05-09T04:05:28;100220.19;;;17.41;74.29
19286;BME280;9776;50.798;6.430;2023-05-09T04:07:55;100220.84;;;17.49;73.79
19286;BME280;9776;50.798;6.430;2023-05-09T04:10:22;100227.28;;;17.55;73.73
19286;BME280;9776;50.798;6.430;2023-05-09T04:12:49;100228.94;;;17.56;74.02
19286;BME280;9776;50.798;6.430;2023-05-09T04:15:16;100223.81;;;17.61;73.75
19286;BME280;9776;50.798;6.430;2023-05-09T04:17:43;100224.25;;;17.65;73.50
19286;BME280;9776;50.798;6.430;2023-05-09T04:20:11;100231.66;;;17.69;73.49
19286;BME280;9776;50.798;6.430;2023-05-09T04:22:38;100231.47;;;17.71;73.46
19286;BME280;9776;50.798;6.430;2023-05-09T04:25:06;100225.13;;;17.72;73.39
19286;BME280;9776;50.798;6.430;2023-05-09T04:27:36;100222.84;;;17.75;73.51
19286;BME280;9776;50.798;6.430;2023-05-09T04:30:04;100216.50;;;17.76;73.44
19286;BME280;9776;50.798;6.430;2023-05-09T04:32:31;100210.56;;;17.74;73.66
19286;BME280;9776;50.798;6.430;2023-05-09T04:34:57;100215.50;;;17.77;73.40
19286;BME280;9776;50.798;6.430;2023-05-09T04:37:25;100215.91;;;17.81;73.38
19286;BME280;9776;50.798;6.430;2023-05-09T04:39:52;100213.63;;;17.78;73.35
19286;BME280;9776;50.798;6.430;2023-05-09T04:42:18;100213.22;;;17.81;73.16
19286;BME280;9776;50.798;6.430;2023-05-09T04:44:45;100210.56;;;17.81;73.33
19286;BME280;9776;50.798;6.430;2023-05-09T04:47:12;100205.47;;;17.86;73.24
19286;BME280;9776;50.798;6.430;2023-05-09T04:49:39;100210.59;;;17.87;73.17
19286;BME280;9776;50.798;6.430;2023-05-09T04:52:05;100213.28;;;17.87;73.01
19286;BME280;9776;50.798;6.430;2023-05-09T04:54:34;100209.38;;;17.90;72.98
19286;BME280;9776;50.798;6.430;2023-05-09T04:57:00;100212.25;;;17.88;73.15
19286;BME280;9776;50.798;6.430;2023-05-09T04:59:27;100213.47;;;17.86;73.24
19286;BME280;9776;50.798;6.430;2023-05-09T05:01:54;100207.09;;;17.80;73.48
19286;BME280;9776;50.798;6.430;2023-05-09T05:04:20;100208.53;;;17.83;73.60
19286;BME280;9776;50.798;6.430;2023-05-09T05:06:47;100213.50;;;17.92;73.50
19286;BME280;9776;50.798;6.430;2023-05-09T05:09:13;100201.63;;;18.08;72.98
19286;BME280;9776;50.798;6.430;2023-05-09T05:11:42;100196.13;;;18.23;72.57
19286;BME280;9776;50.798;6.430;2023-05-09T05:14:08;100188.34;;;18.34;72.47
19286;BME280;9776;50.798;6.430;2023-05-09T05:16:35;100187.13;;;18.43;72.25
19286;BME280;9776;50.798;6.430;2023-05-09T05:19:02;100186.34;;;18.49;71.90
19286;BME280;9776;50.798;6.430;2023-05-09T05:21:28;100185.53;;;18.49;71.83
19286;BME280;9776;50.798;6.430;2023-05-09T05:23:55;100187.78;;;18.52;71.82
19286;BME280;9776;50.798;6.430;2023-05-09T05:26:21;100181.00;;;18.49;71.75
19286;BME280;9776;50.798;6.430;2023-05-09T05:28:49;100183.06;;;18.54;71.56
19286;BME280;9776;50.798;6.430;2023-05-09T05:31:19;100180.81;;;18.57;71.55
19286;BME280;9776;50.798;6.430;2023-05-09T05:33:46;100172.56;;;18.59;71.58
19286;BME280;9776;50.798;6.430;2023-05-09T05:36:12;100174.41;;;18.65;71.19
19286;BME280;9776;50.798;6.430;2023-05-09T05:38:39;100171.13;;;18.76;70.84
19286;BME280;9776;50.798;6.430;2023-05-09T05:41:06;100165.16;;;18.94;70.77
19286;BME280;9776;50.798;6.430;2023-05-09T05:43:35;100162.25;;;19.15;70.11
19286;BME280;9776;50.798;6.430;2023-05-09T05:46:03;100147.81;;;19.36;69.55
19286;BME280;9776;50.798;6.430;2023-05-09T05:48:30;100153.56;;;19.46;69.08
19286;BME280;9776;50.798;6.430;2023-05-09T05:50:56;100148.78;;;19.54;68.81
19286;BME280;9776;50.798;6.430;2023-05-09T05:53:23;100154.38;;;19.53;68.63
19286;BME280;9776;50.798;6.430;2023-05-09T05:55:50;100148.19;;;19.52;68.51
19286;BME280;9776;50.798;6.430;2023-05-09T05:58:16;100146.75;;;19.50;68.42
19286;BME280;9776;50.798;6.430;2023-05-09T06:00:43;100141.00;;;19.46;68.41
19286;BME280;9776;50.798;6.430;2023-05-09T06:03:11;100147.38;;;19.45;68.05
19286;BME280;9776;50.798;6.430;2023-05-09T06:05:41;100134.22;;;19.44;68.31
19286;BME280;9776;50.798;6.430;2023-05-09T06:08:07;100139.97;;;19.41;68.07
19286;BME280;9776;50.798;6.430;2023-05-09T06:10:34;100135.47;;;19.41;68.03
19286;BME280;9776;50.798;6.430;2023-05-09T06:13:01;100138.53;;;19.45;67.92
19286;BME280;9776;50.798;6.430;2023-05-09T06:15:27;100122.06;;;19.48;67.86
19286;BME280;9776;50.798;6.430;2023-05-09T06:17:55;100121.22;;;19.47;67.69
19286;BME280;9776;50.798;6.430;2023-05-09T06:20:23;100123.09;;;19.47;67.85
19286;BME280;9776;50.798;6.430;2023-05-09T06:22:50;100116.91;;;19.46;67.75
19286;BME280;9776;50.798;6.430;2023-05-09T06:25:17;100116.91;;;19.46;67.70
19286;BME280;9776;50.798;6.430;2023-05-09T06:27:43;100113.16;;;19.54;67.41
19286;BME280;9776;50.798;6.430;2023-05-09T06:30:11;100109.25;;;19.56;67.38
19286;BME280;9776;50.798;6.430;2023-05-09T06:32:38;100111.03;;;19.69;67.20
19286;BME280;9776;50.798;6.430;2023-05-09T06:35:05;100113.59;;;19.89;66.61
19286;BME280;9776;50.798;6.430;2023-05-09T06:37:33;100101.56;;;20.04;65.94
19286;BME280;9776;50.798;6.430;2023-05-09T06:40:00;100102.94;;;20.13;65.48
19286;BME280;9776;50.798;6.430;2023-05-09T06:42:27;100098.34;;;20.27;65.05
19286;BME280;9776;50.798;6.430;2023-05-09T06:44:54;100095.34;;;20.42;64.51
19286;BME280;9776;50.798;6.430;2023-05-09T06:47:21;100085.31;;;20.55;64.16
19286;BME280;9776;50.798;6.430;2023-05-09T06:49:47;100083.56;;;20.67;63.53
19286;BME280;9776;50.798;6.430;2023-05-09T06:52:14;100084.34;;;20.74;62.98
19286;BME280;9776;50.798;6.430;2023-05-09T06:54:42;100072.34;;;20.77;62.64
19286;BME280;9776;50.798;6.430;2023-05-09T06:57:09;100081.41;;;20.76;62.22
19286;BME280;9776;50.798;6.430;2023-05-09T06:59:35;100081.34;;;20.82;61.64
19286;BME280;9776;50.798;6.430;2023-05-09T07:02:02;100076.97;;;20.88;61.17
19286;BME280;9776;50.798;6.430;2023-05-09T07:04:28;100069.28;;;20.91;60.74
19286;BME280;9776;50.798;6.430;2023-05-09T07:06:55;100078.16;;;20.92;60.00
19286;BME280;9776;50.798;6.430;2023-05-09T07:09:23;100066.16;;;20.94;59.36
19286;BME280;9776;50.798;6.430;2023-05-09T07:11:53;100068.94;;;21.06;58.42
19286;BME280;9776;50.798;6.430;2023-05-09T07:14:20;100066.56;;;21.16;58.00
19286;BME280;9776;50.798;6.430;2023-05-09T07:16:46;100062.09;;;21.28;57.54
19286;BME280;9776;50.798;6.430;2023-05-09T07:19:13;100062.53;;;21.43;57.22
19286;BME280;9776;50.798;6.430;2023-05-09T07:21:39;100055.69;;;21.59;56.67
19286;BME280;9776;50.798;6.430;2023-05-09T07:24:06;100053.50;;;21.68;56.32
19286;BME280;9776;50.798;6.430;2023-05-09T07:26:34;100047.38;;;21.79;55.88
19286;BME280;9776;50.798;6.430;2023-05-09T07:29:02;100050.34;;;21.89;55.33
19286;BME280;9776;50.798;6.430;2023-05-09T07:31:28;100057.03;;;21.98;55.05
19286;BME280;9776;50.798;6.430;2023-05-09T07:33:55;100044.78;;;22.14;54.44
19286;BME280;9776;50.798;6.430;2023-05-09T07:36:22;100038.75;;;22.41;53.88
19286;BME280;9776;50.798;6.430;2023-05-09T07:38:48;100045.28;;;22.80;52.93
19286;BME280;9776;50.798;6.430;2023-05-09T07:41:16;100031.50;;;22.88;52.51
19286;BME280;9776;50.798;6.430;2023-05-09T07:43:43;100035.41;;;23.09;52.03
19286;BME280;9776;50.798;6.430;2023-05-09T07:46:11;100034.97;;;23.52;50.98
19286;BME280;9776;50.798;6.430;2023-05-09T07:48:38;100020.66;;;23.80;50.02
19286;BME280;9776;50.798;6.430;2023-05-09T07:51:04;100025.84;;;23.98;49.82
19286;BME280;9776;50.798;6.430;2023-05-09T07:53:31;100025.31;;;24.12;49.38
19286;BME280;9776;50.798;6.430;2023-05-09T07:55:57;100021.25;;;24.48;48.71
19286;BME280;9776;50.798;6.430;2023-05-09T07:58:25;100015.47;;;25.16;47.42
19286;BME280;9776;50.798;6.430;2023-05-09T08:00:54;100010.03;;;25.60;46.11
19286;BME280;9776;50.798;6.430;2023-05-09T08:03:22;100013.81;;;25.85;45.63
19286;BME280;9776;50.798;6.430;2023-05-09T08:05:52;99996.97;;;25.52;45.41
19286;BME280;9776;50.798;6.430;2023-05-09T08:08:18;100003.34;;;25.94;45.06
19286;BME280;9776;50.798;6.430;2023-05-09T08:10:45;99995.59;;;26.39;43.84
19286;BME280;9776;50.798;6.430;2023-05-09T08:13:11;99987.00;;;26.52;43.83
19286;BME280;9776;50.798;6.430;2023-05-09T08:15:38;99984.56;;;26.51;43.58
19286;BME280;9776;50.798;6.430;2023-05-09T08:18:05;99980.72;;;26.47;43.54
19286;BME280;9776;50.798;6.430;2023-05-09T08:20:33;99971.13;;;26.66;43.29
19286;BME280;9776;50.798;6.430;2023-05-09T08:23:00;99963.94;;;26.92;42.47
19286;BME280;9776;50.798;6.430;2023-05-09T08:25:27;99963.25;;;27.32;41.84
19286;BME280;9776;50.798;6.430;2023-05-09T08:27:53;99966.59;;;27.74;41.07
19286;BME280;9776;50.798;6.430;2023-05-09T08:30:20;99953.81;;;28.35;39.94
19286;BME280;9776;50.798;6.430;2023-05-09T08:32:47;99944.19;;;28.78;39.18
19286;BME280;9776;50.798;6.430;2023-05-09T08:35:13;99957.84;;;29.27;38.38
19286;BME280;9776;50.798;6.430;2023-05-09T08:37:41;99945.97;;;29.57;37.98
19286;BME280;9776;50.798;6.430;2023-05-09T08:40:09;99936.16;;;29.56;37.84
19286;BME280;9776;50.798;6.430;2023-05-09T08:42:36;99931.63;;;29.46;38.07
19286;BME280;9776;50.798;6.430;2023-05-09T08:45:06;99932.19;;;29.82;37.29
19286;BME280;9776;50.798;6.430;2023-05-09T08:47:34;99915.41;;;30.27;36.79
19286;BME280;9776;50.798;6.430;2023-05-09T08:50:01;99918.91;;;30.57;36.27
19286;BME280;9776;50.798;6.430;2023-05-09T08:52:29;99908.88;;;30.76;35.55
19286;BME280;9776;50.798;6.430;2023-05-09T08:54:59;99909.31;;;29.83;36.79
19286;BME280;9776;50.798;6.430;2023-05-09T08:57:26;99898.94;;;28.48;38.71
19286;BME280;9776;50.798;6.430;2023-05-09T08:59:54;99903.41;;;27.64;40.53
19286;BME280;9776;50.798;6.430;2023-05-09T09:02:20;99904.38;;;27.02;40.76
19286;BME280;9776;50.798;6.430;2023-05-09T09:04:47;99903.28;;;26.41;41.02
19286;BME280;9776;50.798;6.430;2023-05-09T09:07:14;99907.63;;;26.00;41.04
19286;BME280;9776;50.798;6.430;2023-05-09T09:09:43;99898.59;;;25.84;41.01
19286;BME280;9776;50.798;6.430;2023-05-09T09:12:13;99899.63;;;25.78;40.57
19286;BME280;9776;50.798;6.430;2023-05-09T09:14:46;99891.91;;;25.60;40.67
19286;BME280;9776;50.798;6.430;2023-05-09T09:17:18;99887.50;;;25.49;40.30
19286;BME280;9776;50.798;6.430;2023-05-09T09:19:48;99888.81;;;25.78;39.95
19286;BME280;9776;50.798;6.430;2023-05-09T09:22:17;99886.09;;;26.15;38.97
19286;BME280;9776;50.798;6.430;2023-05-09T09:24:44;99888.88;;;26.25;39.10
19286;BME280;9776;50.798;6.430;2023-05-09T09:27:12;99884.03;;;26.32;38.50
19286;BME280;9776;50.798;6.430;2023-05-09T09:29:39;99877.56;;;26.38;39.00
19286;BME280;9776;50.798;6.430;2023-05-09T09:32:06;99877.78;;;26.22;39.02
19286;BME280;9776;50.798;6.430;2023-05-09T09:34:32;99877.06;;;26.00;39.96
19286;BME280;9776;50.798;6.430;2023-05-09T09:36:59;99867.91;;;26.06;40.30
19286;BME280;9776;50.798;6.430;2023-05-09T09:39:26;99870.13;;;26.14;40.09
19286;BME280;9776;50.798;6.430;2023-05-09T09:41:52;99878.88;;;26.26;39.96
19286;BME280;9776;50.798;6.430;2023-05-09T09:44:21;99870.66;;;26.68;39.04
19286;BME280;9776;50.798;6.430;2023-05-09T09:46:49;99871.69;;;27.54;37.31
19286;BME280;9776;50.798;6.430;2023-05-09T09:49:16;99873.78;;;28.28;35.59
19286;BME280;9776;50.798;6.430;2023-05-09T09:51:44;99866.22;;;28.20;35.89
19286;BME280;9776;50.798;6.430;2023-05-09T09:54:13;99861.25;;;28.32;35.60
19286;BME280;9776;50.798;6.430;2023-05-09T09:56:41;99861.63;;;28.79;34.96
19286;BME280;9776;50.798;6.430;2023-05-09T09:59:10;99860.22;;;28.92;35.25
19286;BME280;9776;50.798;6.430;2023-05-09T10:01:59;99864.13;;;29.14;34.85
19286;BME280;9776;50.798;6.430;2023-05-09T10:04:28;99860.44;;;29.00;34.99
19286;BME280;9776;50.798;6.430;2023-05-09T10:06:56;99850.03;;;29.07;34.99
19286;BME280;9776;50.798;6.430;2023-05-09T10:09:24;99843.06;;;30.21;33.56
19286;BME280;9776;50.798;6.430;2023-05-09T10:11:53;99841.84;;;30.75;32.66
19286;BME280;9776;50.798;6.430;2023-05-09T10:14:21;99833.72;;;30.94;32.63
19286;BME280;9776;50.798;6.430;2023-05-09T10:16:50;99832.59;;;31.13;32.19
19286;BME280;9776;50.798;6.430;2023-05-09T10:19:20;99832.50;;;30.81;33.01
19286;BME280;9776;50.798;6.430;2023-05-09T10:21:51;99832.75;;;31.03;32.57
19286;BME280;9776;50.798;6.430;2023-05-09T10:24:20;99830.47;;;30.25;33.32
19286;BME280;9776;50.798;6.430;2023-05-09T10:26:48;99816.78;;;30.12;33.36
19286;BME280;9776;50.798;6.430;2023-05-09T10:29:20;99804.72;;;29.94;33.43
19286;BME280;9776;50.798;6.430;2023-05-09T10:31:53;99806.41;;;30.38;32.78
19286;BME280;9776;50.798;6.430;2023-05-09T10:34:21;99808.34;;;30.74;31.86
19286;BME280;9776;50.798;6.430;2023-05-09T10:36:50;99804.97;;;31.01;32.13
19286;BME280;9776;50.798;6.430;2023-05-09T10:39:17;99805.03;;;30.77;32.50
19286;BME280;9776;50.798;6.430;2023-05-09T10:41:45;99796.81;;;31.01;32.43
19286;BME280;9776;50.798;6.430;2023-05-09T10:44:14;99791.84;;;31.22;31.86
19286;BME280;9776;50.798;6.430;2023-05-09T10:46:41;99793.56;;;30.62;32.94
19286;BME280;9776;50.798;6.430;2023-05-09T10:49:08;99783.03;;;30.55;32.90
19286;BME280;9776;50.798;6.430;2023-05-09T10:51:36;99789.13;;;31.22;31.45
19286;BME280;9776;50.798;6.430;2023-05-09T10:54:12;99787.31;;;30.99;32.17
19286;BME280;9776;50.798;6.430;2023-05-09T10:56:39;99771.75;;;30.43;32.39
19286;BME280;9776;50.798;6.430;2023-05-09T10:59:31;99775.44;;;30.28;32.94
19286;BME280;9776;50.798;6.430;2023-05-09T11:01:59;99772.41;;;30.11;32.99
19286;BME280;9776;50.798;6.430;2023-05-09T11:04:28;99773.16;;;30.41;32.54
19286;BME280;9776;50.798;6.430;2023-05-09T11:06:56;99766.00;;;30.82;31.42
19286;BME280;9776;50.798;6.430;2023-05-09T11:09:27;99756.19;;;31.51;30.86
19286;BME280;9776;50.798;6.430;2023-05-09T11:11:58;99757.81;;;31.79;30.24
19286;BME280;9776;50.798;6.430;2023-05-09T11:14:31;99750.78;;;31.45;30.58
19286;BME280;9776;50.798;6.430;2023-05-09T11:17:00;99750.19;;;30.23;31.96
19286;BME280;9776;50.798;6.430;2023-05-09T11:19:36;99740.66;;;29.25;33.06
19286;BME280;9776;50.798;6.430;2023-05-09T11:22:14;99750.38;;;28.59;34.26
19286;BME280;9776;50.798;6.430;2023-05-09T11:24:44;99748.69;;;28.14;34.36
19286;BME280;9776;50.798;6.430;2023-05-09T11:27:17;99736.66;;;27.66;35.22
19286;BME280;9776;50.798;6.430;2023-05-09T11:29:49;99728.28;;;27.47;35.54
19286;BME280;9776;50.798;6.430;2023-05-09T11:32:16;99733.47;;;27.03;36.11
19286;BME280;9776;50.798;6.430;2023-05-09T11:34:44;99715.53;;;26.57;36.55
19286;BME280;9776;50.798;6.430;2023-05-09T11:37:12;99716.59;;;26.46;36.81
19286;BME280;9776;50.798;6.430;2023-05-09T11:39:56;99711.72;;;26.53;37.01
19286;BME280;9776;50.798;6.430;2023-05-09T11:42:23;99714.44;;;26.68;36.67
19286;BME280;9776;50.798;6.430;2023-05-09T11:44:51;99707.13;;;26.59;36.89
19286;BME280;9776;50.798;6.430;2023-05-09T11:47:18;99707.38;;;26.42;37.75
19286;BME280;9776;50.798;6.430;2023-05-09T11:49:45;99697.59;;;26.26;37.91
19286;BME280;9776;50.798;6.430;2023-05-09T11:52:13;99694.38;;;26.34;38.13
19286;BME280;9776;50.798;6.430;2023-05-09T11:54:39;99702.78;;;26.37;37.91
19286;BME280;9776;50.798;6.430;2023-05-09T11:57:08;99686.72;;;26.11;38.24
19286;BME280;9776;50.798;6.430;2023-05-09T11:59:35;99687.13;;;25.77;39.09
19286;BME280;9776;50.798;6.430;2023-05-09T12:02:04;99680.09;;;25.76;39.23
19286;BME280;9776;50.798;6.430;2023-05-09T12:04:33;99677.22;;;25.46;39.29
19286;BME280;9776;50.798;6.430;2023-05-09T12:07:01;99677.16;;;25.31;39.62
19286;BME280;9776;50.798;6.430;2023-05-09T12:09:29;99670.00;;;25.15;39.57
19286;BME280;9776;50.798;6.430;2023-05-09T12:11:57;99662.03;;;25.35;39.13
19286;BME280;9776;50.798;6.430;2023-05-09T12:14:29;99669.31;;;25.34;39.04
19286;BME280;9776;50.798;6.430;2023-05-09T12:16:57;99658.94;;;25.16;39.25
19286;BME280;9776;50.798;6.430;2023-05-09T12:19:25;99664.81;;;25.08;39.38
19286;BME280;9776;50.798;6.430;2023-05-09T12:21:55;99657.72;;;24.97;39.53
19286;BME280;9776;50.798;6.430;2023-05-09T12:24:22;99659.41;;;24.76;39.79
19286;BME280;9776;50.798;6.430;2023-05-09T12:26:51;99655.53;;;24.62;40.32
19286;BME280;9776;50.798;6.430;2023-05-09T12:29:18;99662.53;;;24.58;40.65
19286;BME280;9776;50.798;6.430;2023-05-09T12:31:47;99644.25;;;24.70;40.41
19286;BME280;9776;50.798;6.430;2023-05-09T12:34:14;99652.28;;;24.60;40.62
19286;BME280;9776;50.798;6.430;2023-05-09T12:36:42;99654.47;;;24.63;41.09
19286;BME280;9776;50.798;6.430;2023-05-09T12:39:15;99647.63;;;24.82;41.16
19286;BME280;9776;50.798;6.430;2023-05-09T12:41:43;99645.53;;;24.90;41.38
19286;BME280;9776;50.798;6.430;2023-05-09T12:44:17;99641.72;;;24.86;41.69
19286;BME280;9776;50.798;6.430;2023-05-09T12:46:54;99644.31;;;24.75;42.45
19286;BME280;9776;50.798;6.430;2023-05-09T12:49:22;99648.56;;;24.66;43.45
19286;BME280;9776;50.798;6.430;2023-05-09T12:51:49;99649.75;;;24.49;44.61
19286;BME280;9776;50.798;6.430;2023-05-09T12:54:19;99644.88;;;24.46;45.05
19286;BME280;9776;50.798;6.430;2023-05-09T12:56:46;99649.28;;;24.30;45.87
19286;BME280;9776;50.798;6.430;2023-05-09T12:59:19;99654.47;;;24.10;46.55
19286;BME280;9776;50.798;6.430;2023-05-09T13:01:50;99658.31;;;23.92;47.51
19286;BME280;9776;50.798;6.430;2023-05-09T13:04:19;99652.19;;;23.75;47.59
19286;BME280;9776;50.798;6.430;2023-05-09T13:06:48;99658.81;;;23.46;48.39
19286;BME280;9776;50.798;6.430;2023-05-09T13:09:15;99661.44;;;23.24;49.17